createdAt,value
2019-04-07T00:00:59.883Z,18.80
2019-04-07T00:03:26.618Z,18.90
2019-04-07T00:05:53.696Z,18.90
2019-04-07T00:08:20.558Z,18.80
2019-04-07T00:10:47.183Z,18.80
2019-04-07T00:13:13.670Z,18.80
2019-04-07T00:15:40.095Z,18.80
2019-04-07T00:18:06.668Z,18.70
2019-04-07T00:20:33.224Z,18.70
2019-04-07T00:22:59.527Z,18.70
2019-04-07T00:25:25.968Z,18.70
2019-04-07T00:27:57.504Z,18.70
2019-04-07T00:30:23.803Z,18.70
2019-04-07T00:32:50.765Z,18.70
2019-04-07T00:35:26.786Z,18.70
2019-04-07T00:37:45.310Z,18.60
2019-04-07T00:40:12.049Z,18.60
2019-04-07T00:42:39.082Z,18.60
2019-04-07T00:45:06.125Z,18.60
2019-04-07T00:47:33.976Z,18.60
2019-04-07T00:50:00.848Z,18.60
2019-04-07T00:52:28.373Z,18.60
2019-04-07T00:54:55.560Z,18.60
2019-04-07T00:57:23.025Z,18.60
2019-04-07T00:59:49.324Z,18.60
2019-04-07T01:02:16.877Z,18.60
2019-04-07T01:04:43.898Z,18.60
2019-04-07T01:07:11.398Z,18.60
2019-04-07T01:09:38.055Z,18.60
2019-04-07T01:12:05.054Z,18.50
2019-04-07T01:14:31.538Z,18.50
2019-04-07T01:16:58.314Z,18.50
2019-04-07T01:19:25.278Z,18.50
2019-04-07T01:21:51.773Z,18.40
2019-04-07T01:24:18.682Z,18.50
2019-04-07T01:26:45.059Z,18.40
2019-04-07T01:29:11.565Z,18.50
2019-04-07T01:31:38.082Z,18.40
2019-04-07T01:34:04.430Z,18.50
2019-04-07T01:36:30.821Z,18.40
2019-04-07T01:38:57.547Z,18.40
2019-04-07T01:41:26.323Z,18.40
2019-04-07T01:44:06.686Z,18.40
2019-04-07T01:46:38.004Z,18.40
2019-04-07T01:49:11.016Z,18.40
2019-04-07T01:51:42.653Z,18.40
2019-04-07T01:54:10.859Z,18.40
2019-04-07T01:56:42.695Z,18.40
2019-04-07T01:59:12.076Z,18.40
2019-04-07T02:01:40.507Z,18.40
2019-04-07T02:04:09.340Z,18.30
2019-04-07T02:06:37.558Z,18.30
2019-04-07T02:09:11.074Z,18.30
2019-04-07T02:11:42.888Z,18.30
2019-04-07T02:14:13.849Z,18.30
2019-04-07T02:16:42.079Z,18.30
2019-04-07T02:19:28.237Z,18.30
2019-04-07T02:21:56.544Z,18.30
2019-04-07T02:24:43.845Z,18.30
2019-04-07T02:27:12.183Z,18.30
2019-04-07T02:29:40.416Z,18.30
2019-04-07T02:32:15.220Z,18.30
2019-04-07T02:34:59.256Z,18.30
2019-04-07T02:37:33.628Z,18.30
2019-04-07T02:40:04.994Z,18.30
2019-04-07T02:42:42.673Z,18.30
2019-04-07T02:45:30.318Z,18.30
2019-04-07T02:47:58.593Z,18.20
2019-04-07T02:50:40.070Z,18.40
2019-04-07T02:53:24.835Z,18.40
2019-04-07T02:56:10.094Z,18.50
2019-04-07T02:58:55.184Z,18.50
2019-04-07T03:01:39.030Z,18.50
2019-04-07T03:04:13.394Z,18.60
2019-04-07T03:06:53.064Z,18.60
2019-04-07T03:09:24.110Z,18.60
2019-04-07T03:11:52.504Z,18.60
2019-04-07T03:14:35.018Z,18.60
2019-04-07T03:17:11.789Z,18.60
2019-04-07T03:19:58.228Z,18.60
2019-04-07T03:22:32.497Z,18.30
2019-04-07T03:25:15.785Z,17.40
2019-04-07T03:27:44.488Z,17.70
2019-04-07T03:30:13.749Z,17.90
2019-04-07T03:32:51.011Z,18.00
2019-04-07T03:35:25.193Z,18.10
2019-04-07T03:37:54.777Z,18.20
2019-04-07T03:40:38.288Z,18.20
2019-04-07T03:43:18.276Z,18.20
2019-04-07T03:46:01.628Z,18.20
2019-04-07T03:48:30.489Z,18.20
2019-04-07T03:51:09.171Z,18.20
2019-04-07T03:53:41.042Z,18.20
2019-04-07T03:56:10.153Z,18.30
2019-04-07T03:58:55.799Z,18.30
2019-04-07T04:01:33.640Z,18.30
2019-04-07T04:04:17.651Z,18.30
2019-04-07T04:07:18.211Z,18.30
2019-04-07T04:09:38.187Z,18.30
2019-04-07T04:12:07.224Z,18.30
2019-04-07T04:14:41.629Z,18.30
2019-04-07T04:17:10.244Z,18.30
2019-04-07T04:19:36.640Z,18.30
2019-04-07T04:22:03.973Z,18.30
2019-04-07T04:24:30.905Z,18.30
2019-04-07T04:26:57.391Z,18.30
2019-04-07T04:29:24.805Z,18.40
2019-04-07T04:31:52.551Z,18.30
2019-04-07T04:34:19.316Z,18.30
2019-04-07T04:36:46.513Z,18.20
2019-04-07T04:39:17.244Z,18.20
2019-04-07T04:41:41.412Z,18.20
2019-04-07T04:44:08.681Z,18.10
2019-04-07T04:46:35.281Z,18.10
2019-04-07T04:49:02.448Z,18.10
2019-04-07T04:51:29.532Z,18.10
2019-04-07T04:53:56.397Z,18.10
2019-04-07T04:56:24.295Z,18.00
2019-04-07T04:58:50.880Z,18.00
2019-04-07T05:01:17.636Z,18.00
2019-04-07T05:03:44.429Z,18.00
2019-04-07T05:06:11.019Z,17.90
2019-04-07T05:08:39.111Z,17.90
2019-04-07T05:11:05.739Z,17.90
2019-04-07T05:13:32.078Z,17.90
2019-04-07T05:15:58.491Z,17.80
2019-04-07T05:18:24.783Z,17.80
2019-04-07T05:20:51.190Z,17.80
2019-04-07T05:23:18.124Z,17.80
2019-04-07T05:25:44.955Z,17.80
2019-04-07T05:28:11.387Z,17.80
2019-04-07T05:30:39.070Z,17.80
2019-04-07T05:33:05.839Z,17.80
2019-04-07T05:35:32.890Z,17.70
2019-04-07T05:38:03.483Z,17.70
2019-04-07T05:40:27.793Z,17.70
2019-04-07T05:42:54.456Z,17.70
2019-04-07T05:45:21.472Z,17.70
2019-04-07T05:47:50.305Z,17.60
2019-04-07T05:50:16.638Z,17.70
2019-04-07T05:52:44.460Z,17.70
2019-04-07T05:55:11.019Z,17.60
2019-04-07T05:57:37.790Z,17.60
2019-04-07T06:00:08.178Z,17.60
2019-04-07T06:02:35.257Z,17.60
2019-04-07T06:05:03.148Z,17.60
2019-04-07T06:07:31.527Z,17.60
2019-04-07T06:09:57.903Z,17.50
2019-04-07T06:12:24.226Z,17.60
2019-04-07T06:14:50.893Z,17.50
2019-04-07T06:17:17.579Z,17.60
2019-04-07T06:19:44.394Z,17.60
2019-04-07T06:22:11.134Z,17.50
2019-04-07T06:24:37.419Z,17.50
2019-04-07T06:27:04.392Z,17.50
2019-04-07T06:29:30.955Z,17.50
2019-04-07T06:31:57.833Z,17.50
2019-04-07T06:34:24.956Z,17.50
2019-04-07T06:36:54.901Z,17.50
2019-04-07T06:39:20.081Z,17.50
2019-04-07T06:41:46.630Z,17.40
2019-04-07T06:44:15.844Z,17.50
2019-04-07T06:46:43.454Z,17.50
2019-04-07T06:49:27.583Z,17.50
2019-04-07T06:52:12.260Z,17.50
2019-04-07T06:54:40.498Z,17.40
2019-04-07T06:57:12.243Z,17.40
2019-04-07T06:59:55.693Z,17.50
2019-04-07T07:02:40.714Z,17.40
2019-04-07T07:05:13.696Z,17.50
2019-04-07T07:07:58.706Z,17.50
2019-04-07T07:10:40.953Z,17.50
2019-04-07T07:13:29.255Z,17.40
2019-04-07T07:15:54.134Z,17.50
2019-04-07T07:18:23.713Z,17.40
2019-04-07T07:21:11.091Z,17.50
2019-04-07T07:23:47.093Z,17.50
2019-04-07T07:26:11.538Z,17.50
2019-04-07T07:28:38.099Z,17.50
2019-04-07T07:31:05.312Z,17.40
2019-04-07T07:33:32.003Z,17.50
2019-04-07T07:35:59.220Z,17.40
2019-04-07T07:38:29.755Z,17.40
2019-04-07T07:40:54.003Z,17.40
2019-04-07T07:43:20.998Z,17.40
2019-04-07T07:45:48.616Z,17.50
2019-04-07T07:48:16.300Z,17.40
2019-04-07T07:50:43.635Z,17.40
2019-04-07T07:53:10.535Z,17.40
2019-04-07T07:55:38.648Z,17.40
2019-04-07T07:58:05.035Z,17.50
2019-04-07T08:00:32.009Z,17.50
2019-04-07T08:02:59.187Z,17.50
2019-04-07T08:05:29.908Z,17.50
2019-04-07T08:07:55.127Z,17.50
2019-04-07T08:10:25.038Z,17.40
2019-04-07T08:12:50.824Z,17.40
2019-04-07T08:15:18.138Z,17.40
2019-04-07T08:17:45.264Z,17.50
2019-04-07T08:20:13.031Z,17.40
2019-04-07T08:22:43.182Z,17.50
2019-04-07T08:25:07.836Z,17.50
2019-04-07T08:27:34.400Z,17.50
2019-04-07T08:30:01.631Z,17.50
2019-04-07T08:32:31.246Z,17.40
2019-04-07T08:34:56.978Z,17.50
2019-04-07T08:37:23.697Z,17.50
2019-04-07T08:39:50.793Z,17.50
2019-04-07T08:42:18.970Z,17.50
2019-04-07T08:44:46.234Z,17.50
2019-04-07T08:47:18.837Z,17.50
2019-04-07T08:49:41.579Z,17.50
2019-04-07T08:52:10.217Z,17.50
2019-04-07T08:54:36.869Z,17.50
2019-04-07T08:57:03.442Z,17.50
2019-04-07T08:59:30.291Z,17.50
2019-04-07T09:01:56.978Z,17.60
2019-04-07T09:04:24.171Z,17.50
2019-04-07T09:06:51.106Z,17.60
2019-04-07T09:09:17.772Z,17.60
2019-04-07T09:11:44.265Z,17.60
2019-04-07T09:14:10.912Z,17.60
2019-04-07T09:16:42.360Z,17.60
2019-04-07T09:19:26.446Z,17.60
2019-04-07T09:22:11.872Z,17.60
2019-04-07T09:24:57.842Z,17.60
2019-04-07T09:27:38.539Z,17.60
2019-04-07T09:30:09.958Z,17.60
2019-04-07T09:32:38.307Z,17.70
2019-04-07T09:35:22.756Z,17.60
2019-04-07T09:38:05.049Z,17.70
2019-04-07T09:40:33.980Z,17.70
2019-04-07T09:43:11.182Z,17.70
2019-04-07T09:45:45.882Z,17.70
2019-04-07T09:48:22.848Z,17.70
2019-04-07T09:51:02.555Z,17.70
2019-04-07T09:53:27.371Z,17.70
2019-04-07T09:55:59.215Z,17.70
2019-04-07T09:58:37.290Z,17.70
2019-04-07T10:01:19.697Z,17.70
2019-04-07T10:03:51.748Z,17.70
2019-04-07T10:06:39.068Z,17.80
2019-04-07T10:09:11.314Z,17.80
2019-04-07T10:11:39.884Z,17.80
2019-04-07T10:14:25.781Z,17.80
2019-04-07T10:16:57.383Z,17.80
2019-04-07T10:19:25.926Z,17.80
2019-04-07T10:22:09.548Z,17.90
2019-04-07T10:24:54.816Z,17.80
2019-04-07T10:27:29.665Z,17.80
2019-04-07T10:30:14.703Z,17.80
2019-04-07T10:32:46.335Z,17.90
2019-04-07T10:35:40.923Z,18.00
2019-04-07T10:38:25.931Z,18.10
2019-04-07T10:41:10.759Z,18.30
2019-04-07T10:43:48.108Z,18.30
2019-04-07T10:46:25.961Z,18.40
2019-04-07T10:49:11.361Z,18.40
2019-04-07T10:51:46.017Z,18.40
2019-04-07T10:54:31.414Z,18.50
2019-04-07T10:57:05.338Z,18.50
2019-04-07T10:59:53.259Z,18.60
2019-04-07T11:02:21.512Z,18.60
2019-04-07T11:04:52.806Z,18.70
2019-04-07T11:07:21.634Z,18.70
2019-04-07T11:09:55.936Z,18.80
2019-04-07T11:12:30.438Z,18.90
2019-04-07T11:15:15.800Z,19.00
2019-04-07T11:17:50.306Z,19.00
2019-04-07T11:20:19.243Z,19.10
2019-04-07T11:22:54.194Z,19.20
2019-04-07T11:25:29.453Z,19.20
2019-04-07T11:28:01.444Z,19.30
2019-04-07T11:30:29.688Z,19.30
2019-04-07T11:33:01.629Z,19.40
2019-04-07T11:35:33.022Z,19.50
2019-04-07T11:38:10.417Z,19.50
2019-04-07T11:40:47.454Z,19.50
2019-04-07T11:43:18.105Z,19.50
2019-04-07T11:45:56.170Z,19.50
2019-04-07T11:48:25.844Z,19.50
2019-04-07T11:51:06.335Z,19.50
2019-04-07T11:53:51.282Z,19.50
2019-04-07T11:56:22.855Z,19.50
2019-04-07T11:58:54.130Z,19.50
2019-04-07T12:01:29.193Z,19.50
2019-04-07T12:04:01.208Z,19.50
2019-04-07T12:06:48.821Z,19.50
2019-04-07T12:09:14.788Z,19.50
2019-04-07T12:11:59.788Z,19.50
2019-04-07T12:14:33.985Z,19.50
2019-04-07T12:17:19.864Z,19.50
2019-04-07T12:20:04.168Z,19.50
2019-04-07T12:22:35.025Z,19.50
2019-04-07T12:25:06.780Z,19.50
2019-04-07T12:27:51.807Z,19.50
2019-04-07T12:30:35.802Z,19.50
2019-04-07T12:33:07.227Z,19.50
2019-04-07T12:35:43.568Z,19.50
2019-04-07T12:38:17.699Z,19.50
2019-04-07T12:41:12.480Z,19.60
2019-04-07T12:43:33.990Z,19.60
2019-04-07T12:46:05.587Z,19.60
2019-04-07T12:48:43.555Z,19.60
2019-04-07T12:51:27.593Z,19.60
2019-04-07T12:53:56.401Z,19.60
2019-04-07T12:56:41.327Z,19.60
2019-04-07T12:59:28.217Z,19.60
2019-04-07T13:02:05.549Z,19.60
2019-04-07T13:04:46.718Z,19.60
2019-04-07T13:07:24.177Z,19.60
2019-04-07T13:09:55.542Z,19.70
2019-04-07T13:12:25.039Z,19.70
2019-04-07T13:15:12.663Z,19.70
2019-04-07T13:17:56.281Z,19.70
2019-04-07T13:20:27.676Z,19.70
2019-04-07T13:23:07.964Z,19.70
2019-04-07T13:25:39.743Z,19.80
2019-04-07T13:28:08.276Z,19.80
2019-04-07T13:30:37.404Z,19.80
2019-04-07T13:33:15.041Z,19.80
2019-04-07T13:35:56.302Z,19.80
2019-04-07T13:38:25.098Z,19.80
2019-04-07T13:41:03.005Z,19.80
2019-04-07T13:43:33.193Z,19.90
2019-04-07T13:46:04.389Z,19.90
2019-04-07T13:48:33.345Z,19.90
2019-04-07T13:51:02.107Z,19.90
2019-04-07T13:53:31.571Z,20.00
2019-04-07T13:56:18.676Z,20.00
2019-04-07T13:58:54.306Z,20.00
2019-04-07T14:01:35.736Z,20.00
2019-04-07T14:04:13.223Z,20.00
2019-04-07T14:06:58.831Z,20.00
2019-04-07T14:09:32.113Z,20.00
2019-04-07T14:12:15.466Z,20.10
2019-04-07T14:14:47.213Z,20.10
2019-04-07T14:17:16.455Z,20.10
2019-04-07T14:20:00.487Z,20.10
2019-04-07T14:22:45.503Z,20.10
2019-04-07T14:25:30.961Z,20.20
2019-04-07T14:28:12.874Z,20.20
2019-04-07T14:30:41.487Z,20.20
2019-04-07T14:33:15.459Z,20.20
2019-04-07T14:35:44.223Z,20.20
2019-04-07T14:38:21.350Z,20.20
2019-04-07T14:40:56.372Z,20.30
2019-04-07T14:43:31.035Z,20.30
2019-04-07T14:46:12.060Z,20.30
2019-04-07T14:48:58.897Z,20.30
2019-04-07T14:51:42.711Z,20.40
2019-04-07T14:54:18.511Z,20.40
2019-04-07T14:56:58.564Z,20.50
2019-04-07T14:59:29.664Z,20.60
2019-04-07T15:02:00.313Z,20.60
2019-04-07T15:04:30.212Z,20.70
2019-04-07T15:07:04.408Z,20.70
2019-04-07T15:09:31.664Z,20.80
2019-04-07T15:12:01.602Z,20.80
2019-04-07T15:14:31.452Z,20.90
2019-04-07T15:16:56.332Z,20.90
2019-04-07T15:19:23.424Z,20.90
2019-04-07T15:21:53.125Z,20.90
2019-04-07T15:24:18.702Z,20.90
2019-04-07T15:26:49.491Z,21.00
2019-04-07T15:29:13.380Z,21.00
2019-04-07T15:31:40.619Z,21.00
2019-04-07T15:34:10.075Z,21.00
2019-04-07T15:36:35.365Z,21.10
2019-04-07T15:39:01.762Z,21.10
2019-04-07T15:41:28.075Z,21.10
2019-04-07T15:43:55.166Z,21.10
2019-04-07T15:46:22.496Z,21.10
2019-04-07T15:48:49.736Z,21.10
2019-04-07T15:51:16.468Z,21.10
2019-04-07T15:53:48.440Z,21.10
2019-04-07T15:56:15.051Z,21.10
2019-04-07T15:58:40.851Z,21.10
2019-04-07T16:01:09.364Z,21.20
2019-04-07T16:03:35.635Z,21.20
2019-04-07T16:06:04.620Z,21.20
2019-04-07T16:08:31.967Z,21.30
2019-04-07T16:10:59.455Z,21.30
2019-04-07T16:13:26.719Z,21.30
2019-04-07T16:15:55.201Z,21.30
2019-04-07T16:18:22.085Z,21.30
2019-04-07T16:20:48.514Z,21.30
2019-04-07T16:23:17.441Z,21.40
2019-04-07T16:25:42.972Z,21.30
2019-04-07T16:28:12.848Z,21.30
2019-04-07T16:30:38.222Z,21.30
2019-04-07T16:33:05.615Z,21.40
2019-04-07T16:35:32.404Z,21.30
2019-04-07T16:38:00.434Z,21.30
2019-04-07T16:40:27.006Z,21.40
2019-04-07T16:43:04.632Z,21.40
2019-04-07T16:45:22.369Z,21.30
2019-04-07T16:47:48.835Z,21.30
2019-04-07T16:50:18.169Z,21.30
2019-04-07T16:52:44.252Z,21.30
2019-04-07T16:55:35.080Z,21.30
2019-04-07T16:58:02.914Z,21.30
2019-04-07T17:00:29.616Z,21.30
2019-04-07T17:02:56.852Z,21.30
2019-04-07T17:05:30.666Z,21.30
2019-04-07T17:07:58.026Z,21.30
2019-04-07T17:10:28.862Z,21.30
2019-04-07T17:12:52.930Z,21.30
2019-04-07T17:15:19.429Z,21.30
2019-04-07T17:17:46.544Z,21.20
2019-04-07T17:20:14.603Z,21.20
2019-04-07T17:22:43.467Z,21.20
2019-04-07T17:25:10.005Z,21.30
2019-04-07T17:27:40.923Z,21.20
2019-04-07T17:30:17.258Z,21.20
2019-04-07T17:32:46.890Z,21.20
2019-04-07T17:35:15.241Z,21.20
2019-04-07T17:37:42.635Z,21.20
2019-04-07T17:40:14.757Z,21.20
2019-04-07T17:42:42.052Z,21.20
2019-04-07T17:45:13.182Z,21.20
2019-04-07T17:48:00.496Z,21.20
2019-04-07T17:50:31.672Z,21.20
2019-04-07T17:53:03.129Z,21.20
2019-04-07T17:55:48.019Z,21.10
2019-04-07T17:58:26.278Z,21.10
2019-04-07T18:00:57.495Z,21.20
2019-04-07T18:03:38.858Z,21.10
2019-04-07T18:06:21.548Z,21.10
2019-04-07T18:09:07.937Z,21.10
2019-04-07T18:11:35.195Z,21.10
2019-04-07T18:14:12.621Z,21.10
2019-04-07T18:16:44.743Z,21.00
2019-04-07T18:19:22.180Z,21.00
2019-04-07T18:21:53.876Z,21.00
2019-04-07T18:24:22.738Z,21.00
2019-04-07T18:26:56.983Z,21.00
2019-04-07T18:29:41.711Z,21.00
2019-04-07T18:32:26.453Z,21.00
2019-04-07T18:34:57.059Z,21.00
2019-04-07T18:37:26.070Z,20.90
2019-04-07T18:39:59.511Z,20.90
2019-04-07T18:42:29.382Z,20.90
2019-04-07T18:45:13.730Z,21.00
2019-04-07T18:47:48.254Z,21.00
2019-04-07T18:50:36.988Z,21.00
2019-04-07T18:53:03.693Z,21.00
2019-04-07T18:55:38.196Z,21.00
2019-04-07T18:58:07.454Z,21.10
2019-04-07T19:00:45.494Z,21.10
2019-04-07T19:03:26.441Z,21.10
2019-04-07T19:06:07.451Z,21.10
2019-04-07T19:08:37.376Z,21.00
2019-04-07T19:11:12.321Z,21.00
2019-04-07T19:13:59.417Z,21.00
2019-04-07T19:16:34.856Z,21.00
2019-04-07T19:19:03.106Z,21.00
2019-04-07T19:21:37.220Z,21.00
2019-04-07T19:24:04.501Z,20.90
2019-04-07T19:26:42.180Z,20.90
2019-04-07T19:29:10.482Z,20.90
2019-04-07T19:31:55.499Z,20.90
2019-04-07T19:34:34.409Z,20.90
2019-04-07T19:37:22.430Z,20.90
2019-04-07T19:40:06.042Z,20.90
2019-04-07T19:42:39.954Z,20.90
2019-04-07T19:45:22.197Z,20.90
2019-04-07T19:47:59.315Z,20.90
2019-04-07T19:50:28.566Z,20.80
2019-04-07T19:53:04.967Z,20.80
2019-04-07T19:55:35.210Z,20.80
2019-04-07T19:58:19.884Z,20.80
2019-04-07T20:01:04.691Z,20.70
2019-04-07T20:03:37.787Z,20.70
2019-04-07T20:06:03.079Z,20.60
2019-04-07T20:08:46.305Z,20.60
2019-04-07T20:11:29.603Z,20.60
2019-04-07T20:14:14.455Z,20.70
2019-04-07T20:16:46.138Z,20.60
2019-04-07T20:19:13.686Z,20.60
2019-04-07T20:21:42.773Z,20.60
2019-04-07T20:24:15.241Z,20.50
2019-04-07T20:27:01.023Z,20.50
2019-04-07T20:29:46.205Z,20.40
2019-04-07T20:32:14.516Z,20.40
2019-04-07T20:34:57.737Z,20.40
2019-04-07T20:37:42.655Z,20.40
2019-04-07T20:40:11.020Z,20.40
2019-04-07T20:42:46.266Z,20.30
2019-04-07T20:45:31.070Z,20.30
2019-04-07T20:48:03.020Z,20.30
2019-04-07T20:50:49.594Z,20.30
2019-04-07T20:53:26.381Z,20.20
2019-04-07T20:56:00.183Z,20.20
2019-04-07T20:58:46.458Z,20.20
2019-04-07T21:01:18.784Z,20.20
2019-04-07T21:03:49.336Z,20.10
2019-04-07T21:06:19.522Z,20.10
2019-04-07T21:08:54.004Z,20.10
2019-04-07T21:11:42.837Z,20.10
2019-04-07T21:14:15.520Z,20.10
2019-04-07T21:17:02.778Z,20.10
2019-04-07T21:19:41.139Z,20.10
2019-04-07T21:22:15.913Z,20.00
2019-04-07T21:25:00.643Z,20.00
2019-04-07T21:27:41.351Z,20.00
2019-04-07T21:30:09.499Z,20.00
2019-04-07T21:32:37.739Z,19.90
2019-04-07T21:35:06.549Z,19.90
2019-04-07T21:37:51.914Z,19.90
2019-04-07T21:40:20.982Z,19.90
2019-04-07T21:42:54.488Z,19.80
2019-04-07T21:45:37.065Z,19.90
2019-04-07T21:48:13.738Z,19.80
2019-04-07T21:50:51.674Z,19.90
2019-04-07T21:53:30.610Z,19.90
2019-04-07T21:56:08.108Z,19.80
2019-04-07T21:58:54.938Z,19.80
2019-04-07T22:01:33.256Z,19.80
2019-04-07T22:04:02.924Z,19.80
2019-04-07T22:06:32.122Z,19.80
2019-04-07T22:09:17.094Z,19.80
2019-04-07T22:11:45.840Z,19.80
2019-04-07T22:14:12.557Z,19.80
2019-04-07T22:16:39.577Z,19.70
2019-04-07T22:19:10.237Z,19.80
2019-04-07T22:21:34.434Z,19.70
2019-04-07T22:24:01.929Z,19.70
2019-04-07T22:26:28.483Z,19.70
2019-04-07T22:28:56.908Z,19.70
2019-04-07T22:31:25.045Z,19.60
2019-04-07T22:33:53.523Z,19.60
2019-04-07T22:36:19.668Z,19.60
2019-04-07T22:38:46.093Z,19.60
2019-04-07T22:41:12.507Z,19.60
2019-04-07T22:43:39.242Z,19.60
2019-04-07T22:46:16.542Z,19.60
2019-04-07T22:48:34.425Z,19.60
2019-04-07T22:51:02.887Z,19.60
2019-04-07T22:53:31.357Z,19.60
2019-04-07T22:55:57.540Z,19.60
2019-04-07T22:58:24.283Z,19.60
2019-04-07T23:00:50.751Z,19.60
2019-04-07T23:03:17.600Z,19.60
2019-04-07T23:05:44.378Z,19.50
2019-04-07T23:08:11.032Z,19.50
2019-04-07T23:10:37.896Z,19.60
2019-04-07T23:13:05.729Z,19.50
2019-04-07T23:15:40.114Z,19.50
2019-04-07T23:18:00.525Z,19.50
2019-04-07T23:20:26.928Z,19.50
2019-04-07T23:22:54.216Z,19.50
2019-04-07T23:25:22.696Z,19.40
2019-04-07T23:27:48.826Z,19.40
2019-04-07T23:30:15.228Z,19.40
2019-04-07T23:32:41.709Z,19.40
2019-04-07T23:35:08.319Z,19.40
2019-04-07T23:37:35.013Z,19.40
2019-04-07T23:40:03.251Z,19.40
2019-04-07T23:42:30.355Z,19.40
2019-04-07T23:44:57.095Z,19.40
2019-04-07T23:47:23.653Z,19.40
2019-04-07T23:49:50.415Z,19.40
2019-04-07T23:52:16.871Z,19.40
2019-04-07T23:54:43.501Z,19.40
2019-04-07T23:57:09.963Z,19.30
2019-04-07T23:59:36.467Z,19.30
